sensor_id;sensor_type;location;lat;lon;timestamp;pressure;altitude;pressure_sealevel;temperature;humidity
9462;BME280;4769;42.660;23.262;2023-04-06T00:00:38;93752.44;;;0.61;84.68
9462;BME280;4769;42.660;23.262;2023-04-06T00:03:04;93752.28;;;0.69;83.55
9462;BME280;4769;42.660;23.262;2023-04-06T00:05:30;93744.06;;;0.65;83.45
9462;BME280;4769;42.660;23.262;2023-04-06T00:07:58;93739.16;;;0.77;82.80
9462;BME280;4769;42.660;23.262;2023-04-06T00:10:24;93735.72;;;0.70;82.49
9462;BME280;4769;42.660;23.262;2023-04-06T00:12:50;93732.00;;;0.51;83.08
9462;BME280;4769;42.660;23.262;2023-04-06T00:15:16;93725.44;;;0.55;82.93
9462;BME280;4769;42.660;23.262;2023-04-06T00:17:41;93732.72;;;0.66;82.38
9462;BME280;4769;42.660;23.262;2023-04-06T00:20:08;93730.91;;;0.67;82.55
9462;BME280;4769;42.660;23.262;2023-04-06T00:22:34;93711.09;;;0.59;82.33
9462;BME280;4769;42.660;23.262;2023-04-06T00:25:03;93710.19;;;0.73;81.44
9462;BME280;4769;42.660;23.262;2023-04-06T00:27:29;93723.34;;;0.72;81.82
9462;BME280;4769;42.660;23.262;2023-04-06T00:29:55;93724.06;;;0.59;82.30
9462;BME280;4769;42.660;23.262;2023-04-06T00:32:21;93713.16;;;0.64;82.65
9462;BME280;4769;42.660;23.262;2023-04-06T00:34:46;93719.78;;;0.45;83.63
9462;BME280;4769;42.660;23.262;2023-04-06T00:37:12;93718.06;;;0.52;83.20
9462;BME280;4769;42.660;23.262;2023-04-06T00:39:38;93710.47;;;0.51;83.79
9462;BME280;4769;42.660;23.262;2023-04-06T00:42:09;93701.44;;;0.47;83.77
9462;BME280;4769;42.660;23.262;2023-04-06T00:44:36;93706.31;;;0.56;83.68
9462;BME280;4769;42.660;23.262;2023-04-06T00:47:01;93709.47;;;0.52;84.39
9462;BME280;4769;42.660;23.262;2023-04-06T00:49:27;93714.28;;;0.55;84.22
9462;BME280;4769;42.660;23.262;2023-04-06T00:51:53;93702.91;;;0.56;84.38
9462;BME280;4769;42.660;23.262;2023-04-06T00:54:19;93708.59;;;0.38;84.60
9462;BME280;4769;42.660;23.262;2023-04-06T00:56:44;93708.50;;;0.59;84.26
9462;BME280;4769;42.660;23.262;2023-04-06T00:59:13;93707.97;;;0.64;84.82
9462;BME280;4769;42.660;23.262;2023-04-06T01:01:39;93703.28;;;0.52;84.67
9462;BME280;4769;42.660;23.262;2023-04-06T01:04:05;93711.97;;;0.66;84.58
9462;BME280;4769;42.660;23.262;2023-04-06T01:06:30;93698.84;;;0.81;84.25
9462;BME280;4769;42.660;23.262;2023-04-06T01:08:56;93713.00;;;0.78;84.53
9462;BME280;4769;42.660;23.262;2023-04-06T01:11:22;93705.91;;;0.87;83.95
9462;BME280;4769;42.660;23.262;2023-04-06T01:13:48;93695.91;;;0.84;83.82
9462;BME280;4769;42.660;23.262;2023-04-06T01:16:17;93700.66;;;0.80;84.26
9462;BME280;4769;42.660;23.262;2023-04-06T01:18:42;93700.50;;;0.88;84.62
9462;BME280;4769;42.660;23.262;2023-04-06T01:21:08;93697.41;;;0.72;84.19
9462;BME280;4769;42.660;23.262;2023-04-06T01:23:37;93692.75;;;0.61;84.72
9462;BME280;4769;42.660;23.262;2023-04-06T01:26:02;93698.03;;;0.74;85.00
9462;BME280;4769;42.660;23.262;2023-04-06T01:28:28;93693.84;;;0.79;84.94
9462;BME280;4769;42.660;23.262;2023-04-06T01:30:54;93692.03;;;0.73;84.33
9462;BME280;4769;42.660;23.262;2023-04-06T01:33:19;93689.28;;;0.81;84.43
9462;BME280;4769;42.660;23.262;2023-04-06T01:35:45;93695.47;;;0.80;84.81
9462;BME280;4769;42.660;23.262;2023-04-06T01:38:11;93683.91;;;0.83;84.95
9462;BME280;4769;42.660;23.262;2023-04-06T01:40:39;93684.38;;;0.93;84.36
9462;BME280;4769;42.660;23.262;2023-04-06T01:43:05;93678.13;;;0.87;84.58
9462;BME280;4769;42.660;23.262;2023-04-06T01:45:31;93676.88;;;0.77;84.96
9462;BME280;4769;42.660;23.262;2023-04-06T01:47:56;93692.19;;;0.65;85.23
9462;BME280;4769;42.660;23.262;2023-04-06T01:50:22;93679.91;;;0.80;84.81
9462;BME280;4769;42.660;23.262;2023-04-06T01:52:48;93682.81;;;0.64;85.01
9462;BME280;4769;42.660;23.262;2023-04-06T01:55:14;93684.16;;;0.60;85.60
9462;BME280;4769;42.660;23.262;2023-04-06T01:57:42;93676.44;;;0.67;85.62
9462;BME280;4769;42.660;23.262;2023-04-06T02:00:09;93678.56;;;0.57;85.98
9462;BME280;4769;42.660;23.262;2023-04-06T02:02:35;93661.91;;;0.72;85.21
9462;BME280;4769;42.660;23.262;2023-04-06T02:05:01;93670.28;;;0.74;84.88
9462;BME280;4769;42.660;23.262;2023-04-06T02:07:27;93678.66;;;0.70;85.44
9462;BME280;4769;42.660;23.262;2023-04-06T02:09:54;93667.34;;;0.84;84.87
9462;BME280;4769;42.660;23.262;2023-04-06T02:12:20;93669.53;;;0.80;84.70
9462;BME280;4769;42.660;23.262;2023-04-06T02:14:49;93666.31;;;0.78;85.02
9462;BME280;4769;42.660;23.262;2023-04-06T02:17:14;93673.69;;;0.75;84.86
9462;BME280;4769;42.660;23.262;2023-04-06T02:19:40;93674.28;;;0.70;85.42
9462;BME280;4769;42.660;23.262;2023-04-06T02:22:06;93643.94;;;0.71;84.97
9462;BME280;4769;42.660;23.262;2023-04-06T02:24:32;93674.69;;;0.74;85.16
9462;BME280;4769;42.660;23.262;2023-04-06T02:26:57;93672.69;;;0.76;85.09
9462;BME280;4769;42.660;23.262;2023-04-06T02:29:23;93672.47;;;0.71;84.51
9462;BME280;4769;42.660;23.262;2023-04-06T02:31:52;93661.78;;;0.52;85.09
9462;BME280;4769;42.660;23.262;2023-04-06T02:34:17;93677.50;;;0.79;84.85
9462;BME280;4769;42.660;23.262;2023-04-06T02:36:44;93655.75;;;0.80;84.75
9462;BME280;4769;42.660;23.262;2023-04-06T02:39:10;93675.84;;;0.65;84.92
9462;BME280;4769;42.660;23.262;2023-04-06T02:41:35;93675.50;;;0.81;85.17
9462;BME280;4769;42.660;23.262;2023-04-06T02:44:03;93669.13;;;0.83;85.03
9462;BME280;4769;42.660;23.262;2023-04-06T02:46:29;93676.88;;;0.77;84.82
9462;BME280;4769;42.660;23.262;2023-04-06T02:48:57;93686.06;;;0.73;84.83
9462;BME280;4769;42.660;23.262;2023-04-06T02:51:23;93661.28;;;0.64;85.65
9462;BME280;4769;42.660;23.262;2023-04-06T02:53:49;93670.31;;;0.81;85.22
9462;BME280;4769;42.660;23.262;2023-04-06T02:56:14;93659.91;;;0.74;85.22
9462;BME280;4769;42.660;23.262;2023-04-06T02:58:40;93667.31;;;0.77;85.90
9462;BME280;4769;42.660;23.262;2023-04-06T03:01:06;93656.56;;;0.80;85.22
9462;BME280;4769;42.660;23.262;2023-04-06T03:03:31;93663.31;;;0.75;85.47
9462;BME280;4769;42.660;23.262;2023-04-06T03:06:00;93662.38;;;0.89;85.13
9462;BME280;4769;42.660;23.262;2023-04-06T03:08:25;93665.97;;;0.88;85.38
9462;BME280;4769;42.660;23.262;2023-04-06T03:10:51;93667.50;;;0.76;85.42
9462;BME280;4769;42.660;23.262;2023-04-06T03:13:17;93677.69;;;0.77;85.77
9462;BME280;4769;42.660;23.262;2023-04-06T03:15:43;93664.91;;;0.76;85.49
9462;BME280;4769;42.660;23.262;2023-04-06T03:18:08;93659.13;;;0.74;85.59
9462;BME280;4769;42.660;23.262;2023-04-06T03:20:34;93651.25;;;0.61;85.80
9462;BME280;4769;42.660;23.262;2023-04-06T03:23:03;93665.13;;;0.81;85.71
9462;BME280;4769;42.660;23.262;2023-04-06T03:25:28;93653.84;;;0.61;85.51
9462;BME280;4769;42.660;23.262;2023-04-06T03:27:54;93662.63;;;0.60;86.54
9462;BME280;4769;42.660;23.262;2023-04-06T03:30:20;93669.31;;;0.75;86.20
9462;BME280;4769;42.660;23.262;2023-04-06T03:32:46;93660.03;;;0.60;86.68
9462;BME280;4769;42.660;23.262;2023-04-06T03:35:11;93658.38;;;0.86;85.10
9462;BME280;4769;42.660;23.262;2023-04-06T03:37:37;93671.69;;;0.77;85.47
9462;BME280;4769;42.660;23.262;2023-04-06T03:40:06;93668.31;;;0.76;85.53
9462;BME280;4769;42.660;23.262;2023-04-06T03:42:32;93670.72;;;0.78;86.09
9462;BME280;4769;42.660;23.262;2023-04-06T03:44:58;93661.94;;;0.79;85.43
9462;BME280;4769;42.660;23.262;2023-04-06T03:47:24;93667.53;;;0.82;85.69
9462;BME280;4769;42.660;23.262;2023-04-06T03:49:50;93651.59;;;0.85;84.92
9462;BME280;4769;42.660;23.262;2023-04-06T03:52:16;93665.13;;;0.81;84.60
9462;BME280;4769;42.660;23.262;2023-04-06T03:54:42;93666.06;;;0.67;84.54
9462;BME280;4769;42.660;23.262;2023-04-06T03:57:10;93657.97;;;0.83;84.46
9462;BME280;4769;42.660;23.262;2023-04-06T03:59:36;93648.94;;;0.72;84.38
9462;BME280;4769;42.660;23.262;2023-04-06T04:02:02;93643.63;;;0.87;84.12
9462;BME280;4769;42.660;23.262;2023-04-06T04:04:28;93649.63;;;0.94;83.28
9462;BME280;4769;42.660;23.262;2023-04-06T04:06:53;93670.03;;;1.03;83.34
9462;BME280;4769;42.660;23.262;2023-04-06T04:09:19;93654.25;;;1.05;82.96
9462;BME280;4769;42.660;23.262;2023-04-06T04:11:45;93660.09;;;1.13;83.15
9462;BME280;4769;42.660;23.262;2023-04-06T04:14:13;93651.91;;;1.10;82.93
9462;BME280;4769;42.660;23.262;2023-04-06T04:16:39;93662.53;;;1.28;82.63
9462;BME280;4769;42.660;23.262;2023-04-06T04:19:05;93668.06;;;1.12;83.25
9462;BME280;4769;42.660;23.262;2023-04-06T04:21:31;93655.66;;;1.01;83.01
9462;BME280;4769;42.660;23.262;2023-04-06T04:23:57;93656.06;;;1.04;82.85
9462;BME280;4769;42.660;23.262;2023-04-06T04:26:23;93665.66;;;1.10;82.84
9462;BME280;4769;42.660;23.262;2023-04-06T04:28:48;93660.38;;;0.91;83.63
9462;BME280;4769;42.660;23.262;2023-04-06T04:31:17;93670.78;;;0.97;83.44
9462;BME280;4769;42.660;23.262;2023-04-06T04:33:43;93665.25;;;1.07;83.31
9462;BME280;4769;42.660;23.262;2023-04-06T04:36:09;93658.88;;;1.09;83.26
9462;BME280;4769;42.660;23.262;2023-04-06T04:38:34;93666.03;;;1.07;83.57
9462;BME280;4769;42.660;23.262;2023-04-06T04:41:00;93671.47;;;1.12;83.70
9462;BME280;4769;42.660;23.262;2023-04-06T04:43:26;93661.53;;;1.29;83.36
9462;BME280;4769;42.660;23.262;2023-04-06T04:45:52;93666.53;;;1.37;82.29
9462;BME280;4769;42.660;23.262;2023-04-06T04:48:22;93642.19;;;1.51;81.15
9462;BME280;4769;42.660;23.262;2023-04-06T04:50:48;93656.94;;;1.31;82.16
9462;BME280;4769;42.660;23.262;2023-04-06T04:53:14;93662.31;;;1.29;82.42
9462;BME280;4769;42.660;23.262;2023-04-06T04:55:40;93658.53;;;1.32;82.60
9462;BME280;4769;42.660;23.262;2023-04-06T04:58:05;93664.94;;;1.36;82.29
9462;BME280;4769;42.660;23.262;2023-04-06T05:00:31;93639.81;;;1.43;81.40
9462;BME280;4769;42.660;23.262;2023-04-06T05:02:57;93635.41;;;1.50;81.13
9462;BME280;4769;42.660;23.262;2023-04-06T05:05:25;93662.59;;;1.54;81.03
9462;BME280;4769;42.660;23.262;2023-04-06T05:07:51;93661.53;;;1.29;82.44
9462;BME280;4769;42.660;23.262;2023-04-06T05:10:17;93660.53;;;1.23;82.47
9462;BME280;4769;42.660;23.262;2023-04-06T05:12:43;93650.91;;;1.17;83.38
9462;BME280;4769;42.660;23.262;2023-04-06T05:15:10;93641.00;;;1.47;82.41
9462;BME280;4769;42.660;23.262;2023-04-06T05:17:35;93637.97;;;1.37;81.89
9462;BME280;4769;42.660;23.262;2023-04-06T05:20:01;93641.22;;;1.58;82.08
9462;BME280;4769;42.660;23.262;2023-04-06T05:22:30;93644.25;;;1.62;81.51
9462;BME280;4769;42.660;23.262;2023-04-06T05:24:56;93640.41;;;1.51;82.10
9462;BME280;4769;42.660;23.262;2023-04-06T05:27:21;93649.25;;;1.63;81.38
9462;BME280;4769;42.660;23.262;2023-04-06T05:29:47;93643.06;;;1.77;81.44
9462;BME280;4769;42.660;23.262;2023-04-06T05:32:13;93650.47;;;2.00;80.21
9462;BME280;4769;42.660;23.262;2023-04-06T05:34:39;93649.25;;;1.96;80.90
9462;BME280;4769;42.660;23.262;2023-04-06T05:37:05;93649.66;;;1.99;80.24
9462;BME280;4769;42.660;23.262;2023-04-06T05:39:33;93639.44;;;1.65;81.34
9462;BME280;4769;42.660;23.262;2023-04-06T05:42:03;93641.63;;;1.75;81.26
9462;BME280;4769;42.660;23.262;2023-04-06T05:44:29;93638.28;;;1.94;81.13
9462;BME280;4769;42.660;23.262;2023-04-06T05:46:55;93646.06;;;2.07;80.41
9462;BME280;4769;42.660;23.262;2023-04-06T05:49:20;93631.88;;;2.03;79.96
9462;BME280;4769;42.660;23.262;2023-04-06T05:51:46;93659.69;;;2.22;79.87
9462;BME280;4769;42.660;23.262;2023-04-06T05:54:12;93636.44;;;1.88;81.27
9462;BME280;4769;42.660;23.262;2023-04-06T05:56:40;93652.25;;;2.12;81.70
9462;BME280;4769;42.660;23.262;2023-04-06T05:59:06;93645.22;;;2.39;80.79
9462;BME280;4769;42.660;23.262;2023-04-06T06:01:32;93638.25;;;2.33;79.50
9462;BME280;4769;42.660;23.262;2023-04-06T06:04:00;93647.84;;;2.45;79.50
9462;BME280;4769;42.660;23.262;2023-04-06T06:06:27;93631.81;;;2.55;79.51
9462;BME280;4769;42.660;23.262;2023-04-06T06:08:53;93637.41;;;2.52;79.29
9462;BME280;4769;42.660;23.262;2023-04-06T06:11:18;93645.59;;;2.55;78.96
9462;BME280;4769;42.660;23.262;2023-04-06T06:13:47;93641.63;;;2.46;79.59
9462;BME280;4769;42.660;23.262;2023-04-06T06:16:12;93647.00;;;2.51;79.16
9462;BME280;4769;42.660;23.262;2023-04-06T06:18:38;93644.59;;;2.63;79.73
9462;BME280;4769;42.660;23.262;2023-04-06T06:21:04;93640.38;;;2.68;79.83
9462;BME280;4769;42.660;23.262;2023-04-06T06:23:30;93648.41;;;2.54;78.26
9462;BME280;4769;42.660;23.262;2023-04-06T06:25:56;93642.06;;;2.37;79.19
9462;BME280;4769;42.660;23.262;2023-04-06T06:28:21;93631.03;;;2.28;79.71
9462;BME280;4769;42.660;23.262;2023-04-06T06:30:50;93641.78;;;2.64;79.64
9462;BME280;4769;42.660;23.262;2023-04-06T06:33:16;93624.22;;;2.53;79.11
9462;BME280;4769;42.660;23.262;2023-04-06T06:35:42;93631.19;;;2.53;79.00
9462;BME280;4769;42.660;23.262;2023-04-06T06:38:07;93639.34;;;2.82;78.36
9462;BME280;4769;42.660;23.262;2023-04-06T06:40:33;93635.28;;;3.06;77.29
9462;BME280;4769;42.660;23.262;2023-04-06T06:42:59;93646.28;;;3.01;76.88
9462;BME280;4769;42.660;23.262;2023-04-06T06:45:25;93646.78;;;2.66;76.98
9462;BME280;4769;42.660;23.262;2023-04-06T06:47:53;93647.59;;;2.73;77.89
9462;BME280;4769;42.660;23.262;2023-04-06T06:50:19;93641.56;;;2.72;77.88
9462;BME280;4769;42.660;23.262;2023-04-06T06:52:45;93650.13;;;2.86;77.97
9462;BME280;4769;42.660;23.262;2023-04-06T06:55:11;93637.94;;;2.86;77.18
9462;BME280;4769;42.660;23.262;2023-04-06T06:57:37;93645.53;;;2.94;77.40
9462;BME280;4769;42.660;23.262;2023-04-06T07:00:03;93644.78;;;3.31;79.55
9462;BME280;4769;42.660;23.262;2023-04-06T07:02:29;93642.91;;;3.45;75.80
9462;BME280;4769;42.660;23.262;2023-04-06T07:04:57;93639.44;;;3.51;75.46
9462;BME280;4769;42.660;23.262;2023-04-06T07:07:23;93635.34;;;3.30;74.96
9462;BME280;4769;42.660;23.262;2023-04-06T07:09:49;93651.34;;;3.40;74.73
9462;BME280;4769;42.660;23.262;2023-04-06T07:12:15;93631.13;;;3.36;75.63
9462;BME280;4769;42.660;23.262;2023-04-06T07:14:40;93637.66;;;3.51;75.31
9462;BME280;4769;42.660;23.262;2023-04-06T07:17:06;93636.09;;;3.75;73.99
9462;BME280;4769;42.660;23.262;2023-04-06T07:19:32;93625.63;;;3.50;74.06
9462;BME280;4769;42.660;23.262;2023-04-06T07:22:00;93626.38;;;3.57;74.34
9462;BME280;4769;42.660;23.262;2023-04-06T07:24:26;93642.25;;;3.49;74.55
9462;BME280;4769;42.660;23.262;2023-04-06T07:26:52;93639.53;;;3.38;73.25
9462;BME280;4769;42.660;23.262;2023-04-06T07:29:18;93641.72;;;3.41;73.49
9462;BME280;4769;42.660;23.262;2023-04-06T07:31:43;93631.16;;;3.29;73.97
9462;BME280;4769;42.660;23.262;2023-04-06T07:34:09;93616.59;;;3.53;74.43
9462;BME280;4769;42.660;23.262;2023-04-06T07:36:35;93639.22;;;4.14;72.37
9462;BME280;4769;42.660;23.262;2023-04-06T07:39:03;93641.88;;;3.83;72.00
9462;BME280;4769;42.660;23.262;2023-04-06T07:41:29;93632.81;;;3.86;73.11
9462;BME280;4769;42.660;23.262;2023-04-06T07:43:55;93628.41;;;4.35;71.96
9462;BME280;4769;42.660;23.262;2023-04-06T07:46:21;93632.63;;;4.36;71.88
9462;BME280;4769;42.660;23.262;2023-04-06T07:48:46;93621.56;;;4.41;71.73
9462;BME280;4769;42.660;23.262;2023-04-06T07:51:12;93621.09;;;4.44;71.13
9462;BME280;4769;42.660;23.262;2023-04-06T07:53:38;93630.00;;;4.12;70.93
9462;BME280;4769;42.660;23.262;2023-04-06T07:56:06;93618.59;;;4.31;70.48
9462;BME280;4769;42.660;23.262;2023-04-06T07:58:32;93622.66;;;4.02;71.41
9462;BME280;4769;42.660;23.262;2023-04-06T08:00:58;93630.13;;;3.99;72.62
9462;BME280;4769;42.660;23.262;2023-04-06T08:03:24;93633.47;;;4.06;71.69
9462;BME280;4769;42.660;23.262;2023-04-06T08:05:49;93631.38;;;4.14;71.16
9462;BME280;4769;42.660;23.262;2023-04-06T08:08:15;93640.88;;;4.09;70.79
9462;BME280;4769;42.660;23.262;2023-04-06T08:10:41;93637.09;;;4.05;71.35
9462;BME280;4769;42.660;23.262;2023-04-06T08:13:09;93644.81;;;4.18;71.46
9462;BME280;4769;42.660;23.262;2023-04-06T08:15:35;93637.22;;;3.85;71.37
9462;BME280;4769;42.660;23.262;2023-04-06T08:18:01;93629.31;;;3.67;72.54
9462;BME280;4769;42.660;23.262;2023-04-06T08:20:27;93641.78;;;3.96;72.90
9462;BME280;4769;42.660;23.262;2023-04-06T08:22:52;93639.47;;;4.31;72.41
9462;BME280;4769;42.660;23.262;2023-04-06T08:25:18;93640.78;;;4.22;69.93
9462;BME280;4769;42.660;23.262;2023-04-06T08:27:44;93643.94;;;3.99;71.68
9462;BME280;4769;42.660;23.262;2023-04-06T08:30:13;93636.84;;;4.13;71.86
9462;BME280;4769;42.660;23.262;2023-04-06T08:32:39;93648.34;;;3.74;69.77
9462;BME280;4769;42.660;23.262;2023-04-06T08:35:05;93658.22;;;3.66;70.68
9462;BME280;4769;42.660;23.262;2023-04-06T08:37:31;93644.22;;;3.91;71.21
9462;BME280;4769;42.660;23.262;2023-04-06T08:39:57;93635.38;;;4.17;69.86
9462;BME280;4769;42.660;23.262;2023-04-06T08:42:25;93639.25;;;4.57;68.51
9462;BME280;4769;42.660;23.262;2023-04-06T08:44:51;93646.88;;;4.34;68.37
9462;BME280;4769;42.660;23.262;2023-04-06T08:47:20;93644.66;;;4.13;68.97
9462;BME280;4769;42.660;23.262;2023-04-06T08:49:46;93648.25;;;4.12;68.06
9462;BME280;4769;42.660;23.262;2023-04-06T08:52:12;93644.31;;;4.03;68.63
9462;BME280;4769;42.660;23.262;2023-04-06T08:54:38;93642.06;;;4.13;69.30
9462;BME280;4769;42.660;23.262;2023-04-06T08:57:04;93637.41;;;4.15;70.05
9462;BME280;4769;42.660;23.262;2023-04-06T08:59:31;93645.25;;;4.39;69.27
9462;BME280;4769;42.660;23.262;2023-04-06T09:01:57;93638.53;;;4.50;68.70
9462;BME280;4769;42.660;23.262;2023-04-06T09:04:27;93638.09;;;4.53;67.61
9462;BME280;4769;42.660;23.262;2023-04-06T09:06:53;93637.25;;;4.77;67.22
9462;BME280;4769;42.660;23.262;2023-04-06T09:09:18;93632.34;;;4.87;66.84
9462;BME280;4769;42.660;23.262;2023-04-06T09:11:46;93634.72;;;4.88;67.29
9462;BME280;4769;42.660;23.262;2023-04-06T09:14:12;93634.63;;;4.77;67.61
9462;BME280;4769;42.660;23.262;2023-04-06T09:16:41;93631.38;;;4.63;67.80
9462;BME280;4769;42.660;23.262;2023-04-06T09:19:08;93635.47;;;4.53;68.30
9462;BME280;4769;42.660;23.262;2023-04-06T09:21:36;93632.41;;;4.38;67.31
9462;BME280;4769;42.660;23.262;2023-04-06T09:24:03;93635.50;;;4.71;67.24
9462;BME280;4769;42.660;23.262;2023-04-06T09:26:29;93622.97;;;4.97;65.95
9462;BME280;4769;42.660;23.262;2023-04-06T09:28:57;93624.72;;;5.03;65.37
9462;BME280;4769;42.660;23.262;2023-04-06T09:31:25;93619.72;;;5.02;64.79
9462;BME280;4769;42.660;23.262;2023-04-06T09:33:51;93627.25;;;4.92;65.13
9462;BME280;4769;42.660;23.262;2023-04-06T09:36:17;93634.22;;;4.98;65.18
9462;BME280;4769;42.660;23.262;2023-04-06T09:38:56;93626.03;;;5.12;65.60
9462;BME280;4769;42.660;23.262;2023-04-06T09:41:23;93641.59;;;5.19;63.31
9462;BME280;4769;42.660;23.262;2023-04-06T09:43:49;93636.56;;;5.06;62.80
9462;BME280;4769;42.660;23.262;2023-04-06T09:46:16;93637.03;;;4.78;63.79
9462;BME280;4769;42.660;23.262;2023-04-06T09:48:42;93618.06;;;5.37;62.60
9462;BME280;4769;42.660;23.262;2023-04-06T09:51:11;93622.31;;;5.49;63.03
9462;BME280;4769;42.660;23.262;2023-04-06T09:53:42;93620.72;;;5.48;62.00
9462;BME280;4769;42.660;23.262;2023-04-06T09:56:17;93625.34;;;5.35;62.00
9462;BME280;4769;42.660;23.262;2023-04-06T09:58:47;93625.16;;;5.00;62.42
9462;BME280;4769;42.660;23.262;2023-04-06T10:01:18;93615.41;;;5.55;62.30
9462;BME280;4769;42.660;23.262;2023-04-06T10:03:50;93621.66;;;6.13;60.68
9462;BME280;4769;42.660;23.262;2023-04-06T10:06:21;93609.88;;;5.33;61.81
9462;BME280;4769;42.660;23.262;2023-04-06T10:08:50;93627.75;;;5.36;62.55
9462;BME280;4769;42.660;23.262;2023-04-06T10:11:20;93614.22;;;5.98;61.15
9462;BME280;4769;42.660;23.262;2023-04-06T10:13:47;93611.38;;;6.00;59.53
9462;BME280;4769;42.660;23.262;2023-04-06T10:16:14;93624.38;;;5.77;60.02
9462;BME280;4769;42.660;23.262;2023-04-06T10:18:42;93614.31;;;5.92;59.62
9462;BME280;4769;42.660;23.262;2023-04-06T10:21:12;93606.47;;;5.92;59.26
9462;BME280;4769;42.660;23.262;2023-04-06T10:23:43;93627.06;;;6.52;58.37
9462;BME280;4769;42.660;23.262;2023-04-06T10:26:13;93602.66;;;6.29;57.75
9462;BME280;4769;42.660;23.262;2023-04-06T10:28:43;93598.69;;;6.61;57.90
9462;BME280;4769;42.660;23.262;2023-04-06T10:31:10;93586.78;;;7.44;56.31
9462;BME280;4769;42.660;23.262;2023-04-06T10:33:36;93597.94;;;7.79;54.58
9462;BME280;4769;42.660;23.262;2023-04-06T10:36:10;93594.16;;;7.19;53.77
9462;BME280;4769;42.660;23.262;2023-04-06T10:38:37;93581.94;;;6.62;54.72
9462;BME280;4769;42.660;23.262;2023-04-06T10:41:07;93590.59;;;6.74;57.61
9462;BME280;4769;42.660;23.262;2023-04-06T10:43:33;93567.53;;;6.99;57.01
9462;BME280;4769;42.660;23.262;2023-04-06T10:46:03;93568.94;;;6.78;57.97
9462;BME280;4769;42.660;23.262;2023-04-06T10:48:37;93565.78;;;7.16;57.12
9462;BME280;4769;42.660;23.262;2023-04-06T10:51:07;93579.75;;;7.33;56.96
9462;BME280;4769;42.660;23.262;2023-04-06T10:53:34;93577.00;;;7.67;55.48
9462;BME280;4769;42.660;23.262;2023-04-06T10:56:00;93572.38;;;7.58;56.19
9462;BME280;4769;42.660;23.262;2023-04-06T10:58:26;93572.75;;;7.10;57.46
9462;BME280;4769;42.660;23.262;2023-04-06T11:00:53;93595.78;;;7.20;56.93
9462;BME280;4769;42.660;23.262;2023-04-06T11:03:22;93578.94;;;7.04;56.12
9462;BME280;4769;42.660;23.262;2023-04-06T11:05:49;93565.28;;;6.91;57.04
9462;BME280;4769;42.660;23.262;2023-04-06T11:08:30;93581.72;;;7.26;55.75
9462;BME280;4769;42.660;23.262;2023-04-06T11:11:07;93564.88;;;7.10;56.55
9462;BME280;4769;42.660;23.262;2023-04-06T11:13:43;93570.47;;;7.42;55.84
9462;BME280;4769;42.660;23.262;2023-04-06T11:16:16;93554.59;;;7.48;55.21
9462;BME280;4769;42.660;23.262;2023-04-06T11:18:57;93559.16;;;7.25;55.31
9462;BME280;4769;42.660;23.262;2023-04-06T11:21:33;93559.91;;;6.97;56.28
9462;BME280;4769;42.660;23.262;2023-04-06T11:24:06;93549.41;;;7.37;55.50
9462;BME280;4769;42.660;23.262;2023-04-06T11:26:37;93553.66;;;6.87;56.90
9462;BME280;4769;42.660;23.262;2023-04-06T11:29:03;93552.38;;;6.27;58.47
9462;BME280;4769;42.660;23.262;2023-04-06T11:31:29;93551.88;;;5.95;59.47
9462;BME280;4769;42.660;23.262;2023-04-06T11:33:58;93553.03;;;6.34;60.15
9462;BME280;4769;42.660;23.262;2023-04-06T11:36:27;93555.63;;;6.80;58.35
9462;BME280;4769;42.660;23.262;2023-04-06T11:38:53;93533.34;;;6.43;58.59
9462;BME280;4769;42.660;23.262;2023-04-06T11:41:18;93548.00;;;6.09;58.36
9462;BME280;4769;42.660;23.262;2023-04-06T11:43:48;93548.47;;;5.95;59.18
9462;BME280;4769;42.660;23.262;2023-04-06T11:46:18;93558.25;;;6.11;58.10
9462;BME280;4769;42.660;23.262;2023-04-06T11:48:44;93539.72;;;6.35;58.19
9462;BME280;4769;42.660;23.262;2023-04-06T11:51:21;93549.59;;;6.45;57.66
9462;BME280;4769;42.660;23.262;2023-04-06T11:53:47;93544.16;;;6.12;58.46
9462;BME280;4769;42.660;23.262;2023-04-06T11:56:23;93543.00;;;6.31;58.94
9462;BME280;4769;42.660;23.262;2023-04-06T11:58:49;93532.09;;;6.22;58.46
9462;BME280;4769;42.660;23.262;2023-04-06T12:01:14;93554.63;;;6.12;58.89
9462;BME280;4769;42.660;23.262;2023-04-06T12:03:40;93548.91;;;5.92;58.49
9462;BME280;4769;42.660;23.262;2023-04-06T12:06:06;93542.22;;;5.96;58.86
9462;BME280;4769;42.660;23.262;2023-04-06T12:08:34;93542.34;;;6.24;58.75
9462;BME280;4769;42.660;23.262;2023-04-06T12:11:00;93540.16;;;6.21;58.25
9462;BME280;4769;42.660;23.262;2023-04-06T12:13:26;93528.00;;;6.15;59.43
9462;BME280;4769;42.660;23.262;2023-04-06T12:15:52;93541.41;;;6.07;58.88
9462;BME280;4769;42.660;23.262;2023-04-06T12:18:17;93533.66;;;5.89;58.97
9462;BME280;4769;42.660;23.262;2023-04-06T12:20:43;93526.66;;;5.71;59.32
9462;BME280;4769;42.660;23.262;2023-04-06T12:23:09;93529.25;;;5.60;58.78
9462;BME280;4769;42.660;23.262;2023-04-06T12:25:39;93534.19;;;5.79;59.02
9462;BME280;4769;42.660;23.262;2023-04-06T12:28:04;93532.19;;;5.93;58.35
9462;BME280;4769;42.660;23.262;2023-04-06T12:30:30;93535.16;;;5.85;57.74
9462;BME280;4769;42.660;23.262;2023-04-06T12:32:56;93539.31;;;5.74;57.99
9462;BME280;4769;42.660;23.262;2023-04-06T12:35:21;93544.66;;;5.79;58.65
9462;BME280;4769;42.660;23.262;2023-04-06T12:37:47;93542.31;;;5.89;58.28
9462;BME280;4769;42.660;23.262;2023-04-06T12:40:13;93538.44;;;5.92;57.94
9462;BME280;4769;42.660;23.262;2023-04-06T12:42:42;93537.28;;;5.88;58.25
9462;BME280;4769;42.660;23.262;2023-04-06T12:45:08;93539.72;;;6.01;57.83
9462;BME280;4769;42.660;23.262;2023-04-06T12:47:34;93530.94;;;5.95;57.61
9462;BME280;4769;42.660;23.262;2023-04-06T12:50:00;93527.44;;;5.90;58.44
9462;BME280;4769;42.660;23.262;2023-04-06T12:52:26;93526.97;;;6.04;57.62
9462;BME280;4769;42.660;23.262;2023-04-06T12:54:51;93535.28;;;6.13;57.25
9462;BME280;4769;42.660;23.262;2023-04-06T12:57:17;93519.22;;;6.21;57.75
9462;BME280;4769;42.660;23.262;2023-04-06T12:59:46;93525.81;;;6.23;56.21
9462;BME280;4769;42.660;23.262;2023-04-06T13:02:12;93516.88;;;6.08;56.90
9462;BME280;4769;42.660;23.262;2023-04-06T13:04:37;93520.25;;;5.97;56.13
9462;BME280;4769;42.660;23.262;2023-04-06T13:07:03;93512.41;;;6.20;56.79
9462;BME280;4769;42.660;23.262;2023-04-06T13:09:29;93518.91;;;6.29;55.11
9462;BME280;4769;42.660;23.262;2023-04-06T13:11:55;93508.41;;;6.29;54.96
9462;BME280;4769;42.660;23.262;2023-04-06T13:14:21;93510.81;;;6.30;54.64
9462;BME280;4769;42.660;23.262;2023-04-06T13:16:49;93507.72;;;6.45;55.89
9462;BME280;4769;42.660;23.262;2023-04-06T13:19:15;93505.69;;;6.35;56.51